createdAt,value
2023-02-23T00:01:55.085Z,98453.57
2023-02-23T00:04:23.809Z,98451.36
2023-02-23T00:06:54.966Z,98455.24
2023-02-23T00:09:25.039Z,98451.84
2023-02-23T00:11:56.809Z,98454.66
2023-02-23T00:14:29.230Z,98452.10
2023-02-23T00:16:56.352Z,98453.66
2023-02-23T00:19:25.044Z,98453.12
2023-02-23T00:21:53.408Z,98448.13
2023-02-23T00:24:20.928Z,98450.69
2023-02-23T00:26:51.357Z,98452.25
2023-02-23T00:29:22.236Z,98446.93
2023-02-23T00:31:51.463Z,98448.77
2023-02-23T00:34:23.967Z,98448.83
2023-02-23T00:36:54.739Z,98450.33
2023-02-23T00:39:25.719Z,98451.19
2023-02-23T00:41:54.142Z,98452.69
2023-02-23T00:44:23.525Z,98450.80
2023-02-23T00:46:52.357Z,98450.23
2023-02-23T00:49:22.070Z,98451.82
2023-02-23T00:51:49.107Z,98454.09
2023-02-23T00:54:17.250Z,98454.26
2023-02-23T00:56:44.055Z,98452.40
2023-02-23T00:59:12.317Z,98447.97
2023-02-23T01:01:41.937Z,98450.67
2023-02-23T01:04:09.613Z,98447.08
2023-02-23T01:06:40.977Z,98446.58
2023-02-23T01:09:11.252Z,98447.31
2023-02-23T01:11:38.093Z,98444.66
2023-02-23T01:14:05.255Z,98451.83
2023-02-23T01:16:34.844Z,98451.71
2023-02-23T01:19:04.626Z,98449.13
2023-02-23T01:21:34.108Z,98446.48
2023-02-23T01:24:02.450Z,98444.48
2023-02-23T01:26:34.057Z,98439.39
2023-02-23T01:29:04.964Z,98437.20
2023-02-23T01:31:31.918Z,98439.25
2023-02-23T01:34:00.824Z,98433.70
2023-02-23T01:36:32.535Z,98436.39
2023-02-23T01:39:00.186Z,98432.85
2023-02-23T01:41:28.651Z,98431.05
2023-02-23T01:43:57.556Z,98428.02
2023-02-23T01:46:24.244Z,98423.36
2023-02-23T01:48:53.231Z,98423.06
2023-02-23T01:51:23.012Z,98420.06
2023-02-23T01:54:00.568Z,98420.02
2023-02-23T01:56:32.033Z,98415.17
2023-02-23T01:59:04.052Z,98410.92
2023-02-23T02:01:32.165Z,98408.06
2023-02-23T02:04:05.960Z,98407.80
2023-02-23T02:06:35.329Z,98409.37
2023-02-23T02:09:08.025Z,98407.66
2023-02-23T02:11:39.409Z,98411.13
2023-02-23T02:14:20.989Z,98409.77
2023-02-23T02:16:53.025Z,98409.67
2023-02-23T02:19:38.081Z,98414.23
2023-02-23T02:22:22.054Z,98412.69
2023-02-23T02:25:12.777Z,98406.92
2023-02-23T02:27:47.380Z,98400.37
2023-02-23T02:30:23.216Z,98403.72
2023-02-23T02:32:58.882Z,98402.60
2023-02-23T02:35:59.690Z,98400.71
2023-02-23T02:38:31.239Z,98397.88
2023-02-23T02:41:41.520Z,98395.75
2023-02-23T02:44:17.907Z,98394.02
2023-02-23T02:46:52.404Z,98395.20
2023-02-23T02:49:30.077Z,98391.64
2023-02-23T02:52:32.673Z,98386.80
2023-02-23T02:55:12.289Z,98387.42
2023-02-23T02:57:40.568Z,98387.18
2023-02-23T03:00:21.315Z,98385.30
2023-02-23T03:03:02.974Z,98381.58
2023-02-23T03:06:04.644Z,98383.39
2023-02-23T03:08:57.413Z,98379.52
2023-02-23T03:11:46.121Z,98376.77
2023-02-23T03:14:29.817Z,98380.05
2023-02-23T03:17:33.922Z,98377.75
2023-02-23T03:20:40.489Z,98378.13
2023-02-23T03:23:31.261Z,98373.76
2023-02-23T03:26:23.114Z,98375.52
2023-02-23T03:29:17.462Z,98377.11
2023-02-23T03:32:16.188Z,98380.23
2023-02-23T03:35:05.486Z,98376.46
2023-02-23T03:37:55.775Z,98377.64
2023-02-23T03:40:41.575Z,98375.86
2023-02-23T03:43:31.538Z,98374.27
2023-02-23T03:46:15.957Z,98370.55
2023-02-23T03:49:00.655Z,98373.63
2023-02-23T03:51:45.885Z,98372.50
2023-02-23T03:54:32.354Z,98373.64
2023-02-23T03:57:17.134Z,98372.56
2023-02-23T04:00:05.404Z,98376.61
2023-02-23T04:02:50.151Z,98373.34
2023-02-23T04:05:33.980Z,98371.19
2023-02-23T04:08:17.552Z,98374.75
2023-02-23T04:11:07.783Z,98374.72
2023-02-23T04:13:38.214Z,98373.47
2023-02-23T04:16:11.482Z,98374.23
2023-02-23T04:18:39.651Z,98376.79
2023-02-23T04:21:07.745Z,98376.91
2023-02-23T04:23:36.388Z,98377.64
2023-02-23T04:26:03.171Z,98373.70
2023-02-23T04:28:29.893Z,98370.06
2023-02-23T04:30:56.679Z,98370.83
2023-02-23T04:33:25.715Z,98370.84
2023-02-23T04:35:54.144Z,98367.13
2023-02-23T04:38:21.514Z,98366.14
2023-02-23T04:40:48.651Z,98367.60
2023-02-23T04:43:15.467Z,98370.10
2023-02-23T04:45:42.559Z,98368.76
2023-02-23T04:48:09.265Z,98362.52
2023-02-23T04:50:35.938Z,98361.63
2023-02-23T04:53:02.653Z,98364.39
2023-02-23T04:55:29.371Z,98362.34
2023-02-23T04:58:01.218Z,98362.08
2023-02-23T05:00:29.563Z,98361.42
2023-02-23T05:02:57.638Z,98362.08
2023-02-23T05:05:24.539Z,98362.91
2023-02-23T05:07:51.676Z,98363.05
2023-02-23T05:10:18.383Z,98359.87
2023-02-23T05:12:45.135Z,98360.63
2023-02-23T05:15:12.196Z,98357.13
2023-02-23T05:17:42.016Z,98354.95
2023-02-23T05:20:09.815Z,98359.70
2023-02-23T05:22:36.723Z,98358.30
2023-02-23T05:25:04.367Z,98359.23
2023-02-23T05:27:32.791Z,98359.35
2023-02-23T05:29:59.526Z,98357.80
2023-02-23T05:32:26.310Z,98361.34
2023-02-23T05:34:53.101Z,98364.59
2023-02-23T05:37:20.523Z,98364.91
2023-02-23T05:39:47.669Z,98364.92
2023-02-23T05:42:14.365Z,98365.36
2023-02-23T05:44:41.202Z,98366.55
2023-02-23T05:47:07.856Z,98362.17
2023-02-23T05:49:34.629Z,98357.98
2023-02-23T05:52:01.349Z,98365.65
2023-02-23T05:54:28.077Z,98361.79
2023-02-23T05:56:54.903Z,98366.32
2023-02-23T05:59:21.644Z,98366.55
2023-02-23T06:01:48.545Z,98371.05
2023-02-23T06:04:15.474Z,98366.91
2023-02-23T06:06:42.231Z,98369.91
2023-02-23T06:09:08.989Z,98367.77
2023-02-23T06:11:35.654Z,98367.41
2023-02-23T06:14:02.448Z,98370.30
2023-02-23T06:16:29.481Z,98368.79
2023-02-23T06:18:56.382Z,98367.40
2023-02-23T06:21:23.164Z,98368.75
2023-02-23T06:23:50.057Z,98370.59
2023-02-23T06:26:16.947Z,98374.26
2023-02-23T06:28:43.675Z,98380.39
2023-02-23T06:31:10.555Z,98375.30
2023-02-23T06:33:37.360Z,98377.81
2023-02-23T06:36:04.394Z,98380.61
2023-02-23T06:38:31.183Z,98380.59
2023-02-23T06:40:57.997Z,98381.48
2023-02-23T06:43:24.787Z,98382.45
2023-02-23T06:45:51.647Z,98385.34
2023-02-23T06:48:18.395Z,98388.06
2023-02-23T06:50:45.093Z,98385.42
2023-02-23T06:53:11.789Z,98384.62
2023-02-23T06:55:38.523Z,98383.17
2023-02-23T06:58:07.248Z,98389.45
2023-02-23T07:00:34.084Z,98387.73
2023-02-23T07:03:01.314Z,98387.69
2023-02-23T07:05:28.498Z,98388.38
2023-02-23T07:07:55.246Z,98387.20
2023-02-23T07:10:22.047Z,98388.43
2023-02-23T07:12:48.781Z,98388.46
2023-02-23T07:15:17.903Z,98389.55
2023-02-23T07:17:46.512Z,98390.09
2023-02-23T07:20:13.760Z,98391.36
2023-02-23T07:22:40.946Z,98394.28
2023-02-23T07:25:09.492Z,98392.52
2023-02-23T07:27:36.399Z,98393.57
2023-02-23T07:30:04.157Z,98394.56
2023-02-23T07:32:31.206Z,98393.86
2023-02-23T07:34:57.929Z,98396.27
2023-02-23T07:37:24.875Z,98396.48
2023-02-23T07:39:51.752Z,98391.23
2023-02-23T07:42:18.707Z,98386.23
2023-02-23T07:44:45.676Z,98384.77
2023-02-23T07:47:12.445Z,98382.84
2023-02-23T07:49:39.393Z,98381.87
2023-02-23T07:52:06.648Z,98380.58
2023-02-23T07:54:33.958Z,98380.33
2023-02-23T07:57:01.053Z,98378.40
2023-02-23T07:59:27.949Z,98379.20
2023-02-23T08:01:54.850Z,98378.73
2023-02-23T08:04:21.890Z,98379.70
2023-02-23T08:06:48.840Z,98379.44
2023-02-23T08:09:15.806Z,98378.54
2023-02-23T08:11:42.677Z,98378.38
2023-02-23T08:14:10.951Z,98376.09
2023-02-23T08:16:37.860Z,98378.59
2023-02-23T08:19:04.693Z,98380.95
2023-02-23T08:21:31.965Z,98380.67
2023-02-23T08:23:59.376Z,98381.77
2023-02-23T08:26:27.186Z,98383.23
2023-02-23T08:28:55.432Z,98382.29
2023-02-23T08:31:25.006Z,98381.36
2023-02-23T08:33:51.897Z,98377.98
2023-02-23T08:36:20.880Z,98380.04
2023-02-23T08:38:48.476Z,98380.67
2023-02-23T08:41:15.321Z,98374.12
2023-02-23T08:43:42.248Z,98374.94
2023-02-23T08:46:09.321Z,98377.77
2023-02-23T08:48:36.363Z,98375.63
2023-02-23T08:51:03.245Z,98377.34
2023-02-23T08:53:31.142Z,98375.39
2023-02-23T08:56:02.129Z,98374.80
2023-02-23T08:58:31.450Z,98371.78
2023-02-23T09:00:58.910Z,98370.71
2023-02-23T09:03:28.717Z,98370.95
2023-02-23T09:05:55.836Z,98370.57
2023-02-23T09:08:23.645Z,98371.80
2023-02-23T09:10:50.719Z,98373.44
2023-02-23T09:13:17.909Z,98372.33
2023-02-23T09:15:44.937Z,98369.67
2023-02-23T09:18:17.547Z,98373.52
2023-02-23T09:20:45.649Z,98372.64
2023-02-23T09:23:13.246Z,98368.63
2023-02-23T09:25:43.524Z,98371.17
2023-02-23T09:28:15.945Z,98375.20
2023-02-23T09:30:44.652Z,98372.82
2023-02-23T09:33:12.459Z,98373.81
2023-02-23T09:35:40.891Z,98373.21
2023-02-23T09:38:08.823Z,98370.91
2023-02-23T09:40:50.068Z,98368.33
2023-02-23T09:43:32.093Z,98368.18
2023-02-23T09:46:28.779Z,98366.77
2023-02-23T09:48:59.180Z,98367.72
2023-02-23T09:51:26.782Z,98366.96
2023-02-23T09:54:02.435Z,98369.61
2023-02-23T09:56:42.285Z,98370.11
2023-02-23T09:59:13.562Z,98368.14
2023-02-23T10:01:56.498Z,98366.92
2023-02-23T10:04:36.797Z,98367.91
2023-02-23T10:07:32.055Z,98368.13
2023-02-23T10:10:15.616Z,98363.85
2023-02-23T10:12:59.994Z,98361.09
2023-02-23T10:15:34.052Z,98356.64
2023-02-23T10:18:20.246Z,98353.54
2023-02-23T10:21:12.841Z,98352.83
2023-02-23T10:23:55.443Z,98350.35
2023-02-23T10:26:28.020Z,98348.59
2023-02-23T10:28:57.106Z,98347.44
2023-02-23T10:31:34.873Z,98344.15
2023-02-23T10:34:06.692Z,98345.73
2023-02-23T10:36:41.395Z,98341.48
2023-02-23T10:39:09.280Z,98341.94
2023-02-23T10:41:38.044Z,98336.83
2023-02-23T10:44:16.920Z,98334.98
2023-02-23T10:46:46.133Z,98330.73
2023-02-23T10:49:23.037Z,98330.78
2023-02-23T10:51:52.518Z,98325.32
2023-02-23T10:54:44.853Z,98326.26
2023-02-23T10:57:27.891Z,98322.02
2023-02-23T11:00:03.246Z,98323.59
2023-02-23T11:02:34.034Z,98320.73
2023-02-23T11:05:01.601Z,98312.75
2023-02-23T11:07:32.087Z,98312.02
2023-02-23T11:10:01.311Z,98309.06
2023-02-23T11:12:43.528Z,98300.75
2023-02-23T11:15:32.068Z,98297.89
2023-02-23T11:18:06.171Z,98295.61
2023-02-23T11:20:37.070Z,98295.52
2023-02-23T11:23:17.408Z,98295.41
2023-02-23T11:25:46.678Z,98289.17
2023-02-23T11:28:21.350Z,98286.04
2023-02-23T11:30:49.542Z,98282.80
2023-02-23T11:33:31.669Z,98281.61
2023-02-23T11:36:25.761Z,98278.77
2023-02-23T11:39:23.714Z,98273.46
2023-02-23T11:42:15.512Z,98272.03
2023-02-23T11:44:42.593Z,98269.45
2023-02-23T11:47:24.256Z,98265.09
2023-02-23T11:49:51.844Z,98265.98
2023-02-23T11:52:23.350Z,98260.47
2023-02-23T11:55:02.865Z,98258.55
2023-02-23T11:57:33.660Z,98260.91
2023-02-23T12:00:09.420Z,98261.42
2023-02-23T12:03:05.690Z,98254.31
2023-02-23T12:05:33.558Z,98256.28
2023-02-23T12:08:27.708Z,98250.29
2023-02-23T12:10:58.264Z,98246.59
2023-02-23T12:13:36.580Z,98245.45
2023-02-23T12:16:16.762Z,98241.11
2023-02-23T12:18:58.631Z,98240.78
2023-02-23T12:21:48.549Z,98237.02
2023-02-23T12:24:35.601Z,98236.21
2023-02-23T12:27:14.704Z,98233.50
2023-02-23T12:30:02.328Z,98232.15
2023-02-23T12:33:11.212Z,98230.77
2023-02-23T12:35:55.843Z,98229.14
2023-02-23T12:38:28.793Z,98223.23
2023-02-23T12:41:03.798Z,98219.92
2023-02-23T12:43:49.642Z,98220.33
2023-02-23T12:46:25.090Z,98214.46
2023-02-23T12:49:05.447Z,98212.13
2023-02-23T12:52:08.930Z,98211.05
2023-02-23T12:54:36.651Z,98209.05
2023-02-23T12:57:32.081Z,98202.14
2023-02-23T13:00:31.026Z,98200.52
2023-02-23T13:03:26.938Z,98193.16
2023-02-23T13:06:26.885Z,98189.59
2023-02-23T13:09:06.971Z,98185.07
2023-02-23T13:11:47.680Z,98180.13
2023-02-23T13:14:20.743Z,98177.34
2023-02-23T13:16:55.794Z,98176.07
2023-02-23T13:19:32.369Z,98175.80
2023-02-23T13:22:16.865Z,98178.30
2023-02-23T13:24:48.426Z,98174.70
2023-02-23T13:27:22.861Z,98174.45
2023-02-23T13:29:55.259Z,98169.08
2023-02-23T13:32:25.726Z,98170.34
2023-02-23T13:34:57.781Z,98166.89
2023-02-23T13:37:32.505Z,98165.22
2023-02-23T13:43:17.737Z,98156.91
2023-02-23T13:46:00.317Z,98151.98
2023-02-23T13:48:54.280Z,98148.55
2023-02-23T13:51:38.756Z,98145.34
2023-02-23T13:54:25.991Z,98143.22
2023-02-23T13:56:57.451Z,98138.64
2023-02-23T13:59:29.511Z,98137.02
2023-02-23T14:01:57.337Z,98139.30
2023-02-23T14:04:34.525Z,98135.02
2023-02-23T14:07:10.039Z,98133.50
2023-02-23T14:09:53.657Z,98130.71
2023-02-23T14:12:42.230Z,98126.34
2023-02-23T14:15:25.925Z,98128.05
2023-02-23T14:18:04.351Z,98123.00
2023-02-23T14:20:40.190Z,98119.41
2023-02-23T14:23:22.311Z,98123.38
2023-02-23T14:25:55.158Z,98122.77
2023-02-23T14:28:33.786Z,98120.23
2023-02-23T14:31:16.228Z,98121.61
2023-02-23T14:33:43.245Z,98116.14
2023-02-23T14:36:24.058Z,98114.61
2023-02-23T14:38:53.854Z,98112.27
2023-02-23T14:41:30.023Z,98108.80
2023-02-23T14:44:29.947Z,98104.75
2023-02-23T14:47:00.341Z,98098.84
2023-02-23T14:49:31.719Z,98099.20
2023-02-23T14:52:05.463Z,98096.34
2023-02-23T14:54:35.513Z,98095.02
2023-02-23T14:57:06.131Z,98088.61
2023-02-23T14:59:41.334Z,98087.92
2023-02-23T15:02:20.458Z,98088.06
2023-02-23T15:04:47.408Z,98088.23
2023-02-23T15:07:45.279Z,98085.35
2023-02-23T15:10:22.699Z,98079.08
2023-02-23T15:12:50.749Z,98077.51
2023-02-23T15:15:22.502Z,98078.33
2023-02-23T15:17:53.252Z,98074.48
2023-02-23T15:20:24.124Z,98071.85
2023-02-23T15:22:55.552Z,98070.59
2023-02-23T15:25:26.498Z,98068.15
2023-02-23T15:27:53.780Z,98062.59
2023-02-23T15:30:32.471Z,98057.37
2023-02-23T15:33:10.962Z,98054.79
2023-02-23T15:35:48.724Z,98053.75
2023-02-23T15:38:43.033Z,98047.50
2023-02-23T15:41:26.733Z,98044.63
2023-02-23T15:43:53.778Z,98046.36
2023-02-23T15:46:28.057Z,98043.01
2023-02-23T15:49:00.954Z,98042.83
2023-02-23T15:51:50.159Z,98044.05
2023-02-23T15:54:56.947Z,98044.27
2023-02-23T15:57:32.206Z,98042.96
2023-02-23T16:00:01.544Z,98038.41
2023-02-23T16:02:29.975Z,98034.70
2023-02-23T16:04:58.055Z,98033.06
2023-02-23T16:07:28.035Z,98033.58
2023-02-23T16:10:22.417Z,98032.70
2023-02-23T16:12:52.644Z,98030.74
2023-02-23T16:15:29.585Z,98029.31
2023-02-23T16:18:10.244Z,98028.07
2023-02-23T16:20:42.888Z,98027.21
2023-02-23T16:23:33.425Z,98030.08
2023-02-23T16:26:16.921Z,98027.89
2023-02-23T16:28:45.987Z,98024.23
2023-02-23T16:31:20.300Z,98025.41
2023-02-23T16:33:57.390Z,98024.52
2023-02-23T16:36:39.098Z,98022.19
2023-02-23T16:39:13.134Z,98022.95
2023-02-23T16:41:40.583Z,98020.88
2023-02-23T16:44:12.581Z,98023.27
2023-02-23T16:47:02.453Z,98023.06
2023-02-23T16:49:30.260Z,98021.13
2023-02-23T16:51:58.325Z,98021.49
2023-02-23T16:54:26.353Z,98023.89
2023-02-23T16:56:55.479Z,98021.94
2023-02-23T16:59:23.577Z,98018.77
2023-02-23T17:01:51.130Z,98023.19
2023-02-23T17:04:20.138Z,98017.67
2023-02-23T17:06:52.980Z,98019.64
2023-02-23T17:09:19.811Z,98018.78
2023-02-23T17:11:47.145Z,98017.77
2023-02-23T17:14:24.757Z,98019.63
2023-02-23T17:16:52.211Z,98019.44
2023-02-23T17:19:20.137Z,98018.31
2023-02-23T17:21:47.286Z,98017.03
2023-02-23T17:24:14.511Z,98014.89
2023-02-23T17:26:42.305Z,98019.57
2023-02-23T17:29:09.293Z,98019.84
2023-02-23T17:31:38.197Z,98012.80
2023-02-23T17:34:05.271Z,98012.20
2023-02-23T17:36:32.225Z,98009.61
2023-02-23T17:38:59.358Z,98003.14
2023-02-23T17:41:29.857Z,98003.64
2023-02-23T17:43:57.026Z,98000.41
2023-02-23T17:46:24.292Z,97998.75
2023-02-23T17:48:51.296Z,97996.05
2023-02-23T17:51:20.237Z,97994.00
2023-02-23T17:53:47.798Z,97992.34
2023-02-23T17:56:16.180Z,97987.63
2023-02-23T17:58:42.976Z,97989.30
2023-02-23T18:01:09.868Z,97987.27
2023-02-23T18:03:37.374Z,97982.91
2023-02-23T18:06:06.582Z,97981.73
2023-02-23T18:08:34.470Z,97981.82
2023-02-23T18:11:01.459Z,97981.04
2023-02-23T18:13:32.643Z,97978.09
2023-02-23T18:16:03.297Z,97977.85
2023-02-23T18:18:30.295Z,97978.05
2023-02-23T18:20:59.720Z,97975.61
2023-02-23T18:23:29.173Z,97973.63
2023-02-23T18:26:05.597Z,97976.25
2023-02-23T18:28:32.670Z,97971.93
2023-02-23T18:30:59.710Z,97970.08
2023-02-23T18:33:26.542Z,97971.94
2023-02-23T18:35:53.672Z,97971.25
2023-02-23T18:38:20.604Z,97972.38
2023-02-23T18:40:47.437Z,97973.48
2023-02-23T18:43:15.410Z,97972.11
2023-02-23T18:45:43.552Z,97972.36
2023-02-23T18:48:13.577Z,97970.09
2023-02-23T18:50:41.556Z,97969.81
2023-02-23T18:53:11.183Z,97971.02
2023-02-23T18:55:38.845Z,97970.96
2023-02-23T18:58:06.008Z,97970.39
2023-02-23T19:00:40.394Z,97968.36
2023-02-23T19:03:07.637Z,97962.73
2023-02-23T19:05:36.381Z,97967.27
2023-02-23T19:08:04.796Z,97965.13
2023-02-23T19:10:31.761Z,97962.48
2023-02-23T19:12:58.557Z,97959.84
2023-02-23T19:15:25.593Z,97962.10
2023-02-23T19:17:53.982Z,97956.58
2023-02-23T19:20:23.347Z,97953.93
2023-02-23T19:22:50.357Z,97949.84
2023-02-23T19:25:17.421Z,97948.85
2023-02-23T19:27:44.321Z,97948.73
2023-02-23T19:30:12.119Z,97951.36
2023-02-23T19:32:40.096Z,97952.42
2023-02-23T19:35:10.897Z,97951.38
2023-02-23T19:37:42.170Z,97949.76
2023-02-23T19:40:10.252Z,97946.48
2023-02-23T19:42:43.045Z,97945.52
2023-02-23T19:45:10.054Z,97944.30
2023-02-23T19:47:36.747Z,97940.49
2023-02-23T19:50:03.916Z,97938.77
2023-02-23T19:52:31.261Z,97938.08
2023-02-23T19:54:58.137Z,97937.27
2023-02-23T19:57:25.253Z,97941.16
2023-02-23T19:59:52.276Z,97937.40
2023-02-23T20:02:19.172Z,97939.27
2023-02-23T20:04:52.150Z,97939.06
2023-02-23T20:07:19.068Z,97935.06
2023-02-23T20:09:45.940Z,97933.56
2023-02-23T20:12:13.027Z,97933.85
2023-02-23T20:14:41.804Z,97934.02
2023-02-23T20:17:09.377Z,97934.53
2023-02-23T20:19:36.229Z,97930.92
2023-02-23T20:22:03.173Z,97934.63
2023-02-23T20:24:30.117Z,97932.55
2023-02-23T20:26:59.537Z,97931.13
2023-02-23T20:29:28.528Z,97925.28
2023-02-23T20:31:55.707Z,97925.67
2023-02-23T20:34:24.511Z,97922.36
2023-02-23T20:36:52.019Z,97924.54
2023-02-23T20:39:19.325Z,97923.12
2023-02-23T20:41:48.044Z,97918.89
2023-02-23T20:44:16.268Z,97911.95
2023-02-23T20:46:44.472Z,97912.23
2023-02-23T20:49:15.012Z,97916.52
2023-02-23T20:51:44.264Z,97908.71
2023-02-23T20:54:12.532Z,97906.20
2023-02-23T20:56:40.983Z,97902.91
2023-02-23T20:59:12.057Z,97904.12
2023-02-23T21:01:43.823Z,97899.16
2023-02-23T21:04:13.368Z,97896.17
2023-02-23T21:06:40.495Z,97894.40
2023-02-23T21:09:12.939Z,97896.77
2023-02-23T21:11:39.952Z,97893.06
2023-02-23T21:14:08.839Z,97892.36
2023-02-23T21:16:36.181Z,97891.59
2023-02-23T21:19:05.939Z,97888.97
2023-02-23T21:21:39.888Z,97888.88
2023-02-23T21:24:06.997Z,97886.16
2023-02-23T21:26:33.826Z,97887.28
2023-02-23T21:29:00.505Z,97885.98
2023-02-23T21:31:27.874Z,97892.08
2023-02-23T21:33:54.742Z,97889.70
2023-02-23T21:36:21.505Z,97887.81
2023-02-23T21:38:48.285Z,97893.31
2023-02-23T21:41:15.680Z,97890.32
2023-02-23T21:43:44.072Z,97886.91
2023-02-23T21:46:14.213Z,97884.95
2023-02-23T21:48:42.814Z,97877.88
2023-02-23T21:51:12.331Z,97876.35
2023-02-23T21:53:40.095Z,97876.80
2023-02-23T21:56:13.623Z,97874.30
2023-02-23T21:58:55.502Z,97870.11
2023-02-23T22:01:31.252Z,97869.45
2023-02-23T22:03:58.840Z,97860.10
2023-02-23T22:06:29.238Z,97857.05
2023-02-23T22:08:56.820Z,97852.72
2023-02-23T22:11:26.591Z,97853.91
2023-02-23T22:13:54.775Z,97851.23
2023-02-23T22:16:22.180Z,97850.20
2023-02-23T22:18:48.964Z,97848.41
2023-02-23T22:21:15.709Z,97842.45
2023-02-23T22:23:48.013Z,97842.06
2023-02-23T22:26:14.806Z,97842.14
2023-02-23T22:28:41.514Z,97838.55
2023-02-23T22:31:12.798Z,97829.80
2023-02-23T22:33:44.214Z,97827.79
2023-02-23T22:36:13.502Z,97825.80
2023-02-23T22:38:43.832Z,97826.16
2023-02-23T22:41:15.358Z,97820.42
2023-02-23T22:43:47.840Z,97813.60
2023-02-23T22:46:16.528Z,97813.06
2023-02-23T22:48:45.787Z,97813.55
2023-02-23T22:51:17.732Z,97809.91
2023-02-23T22:53:45.045Z,97806.27
2023-02-23T22:56:11.846Z,97803.14
2023-02-23T22:58:38.581Z,97800.14
2023-02-23T23:01:09.854Z,97795.95
2023-02-23T23:03:46.134Z,97794.11
2023-02-23T23:06:22.351Z,97790.71
2023-02-23T23:08:54.286Z,97787.59
2023-02-23T23:11:26.035Z,97784.40
2023-02-23T23:14:03.286Z,97781.39
2023-02-23T23:16:33.490Z,97776.04
2023-02-23T23:19:12.451Z,97778.47
2023-02-23T23:21:41.811Z,97773.10
2023-02-23T23:24:13.526Z,97768.90
2023-02-23T23:26:41.313Z,97768.86
2023-02-23T23:29:12.595Z,97766.48
2023-02-23T23:31:45.422Z,97762.62
2023-02-23T23:34:16.891Z,97755.20
2023-02-23T23:36:46.684Z,97748.64
2023-02-23T23:39:16.454Z,97751.10
2023-02-23T23:41:43.832Z,97746.78
2023-02-23T23:44:10.897Z,97741.15
2023-02-23T23:46:42.775Z,97741.52
2023-02-23T23:49:13.115Z,97740.73
2023-02-23T23:51:48.908Z,97741.49
2023-02-23T23:54:31.606Z,97743.06
2023-02-23T23:57:01.571Z,97739.61
2023-02-23T23:59:29.156Z,97736.88
